Time;durP1;ratioP1;P1;durP2;ratioP2;P2;SDS_P1;SDS_P2;PMS_P1;PMS_P2;Temp;Humidity;BMP_temperature;BMP_pressure;BME280_temperature;BME280_humidity;BME280_pressure;Samples;Min_cycle;Max_cycle;Signal;HPM_P1;HPM_P2
2021/03/12 00:01:11;;;;;;;;;;;16.50;62.00;;;;;;5068004;28;19927;-73
2021/03/12 00:03:37;;;;;;;;;;;16.50;62.00;;;;;;5076319;28;19912;-73
2021/03/12 00:06:04;;;;;;;;;;;16.50;62.00;;;;;;5071281;28;20751;-74
2021/03/12 00:08:34;;;;;;;;;;;16.50;62.10;;;;;;5056619;28;19985;-73
2021/03/12 00:11:00;;;;;;;;;;;16.40;62.10;;;;;;5075080;28;19920;-75
2021/03/12 00:13:26;;;;;;;;;;;16.50;62.10;;;;;;5073091;28;19912;-73
2021/03/12 00:15:53;;;;;;;;;;;16.40;62.10;;;;;;5072290;28;19916;-73
2021/03/12 00:18:19;;;;;;;;;;;16.40;62.10;;;;;;5057540;28;20645;-73
2021/03/12 00:20:45;;;;;;;;;;;16.40;62.10;;;;;;5056943;28;19970;-73
2021/03/12 00:23:11;;;;;;;;;;;16.50;62.10;;;;;;5054828;28;19913;-73
2021/03/12 00:25:40;;;;;;;;;;;16.50;62.10;;;;;;5050809;28;19917;-73
2021/03/12 00:28:06;;;;;;;;;;;16.40;62.10;;;;;;5053010;28;19988;-73
2021/03/12 00:30:32;;;;;;;;;;;16.40;62.20;;;;;;5047516;28;19938;-74
2021/03/12 00:33:02;;;;;;;;;;;16.40;62.20;;;;;;5051484;28;20354;-73
2021/03/12 00:35:33;;;;;;;;;;;16.40;62.20;;;;;;5076626;28;19919;-73
2021/03/12 00:37:58;;;;;;;;;;;16.40;62.20;;;;;;5072388;28;19908;-73
2021/03/12 00:40:25;;;;;;;;;;;16.40;62.20;;;;;;5044703;28;19935;-74
2021/03/12 00:42:51;;;;;;;;;;;16.40;62.20;;;;;;5047178;28;19985;-74
2021/03/12 00:45:17;;;;;;;;;;;16.40;62.20;;;;;;5057644;28;20420;-73
2021/03/12 00:47:48;;;;;;;;;;;16.40;62.20;;;;;;5070691;28;20664;-74
2021/03/12 00:50:15;;;;;;;;;;;16.40;62.20;;;;;;5078129;28;19944;-74
2021/03/12 00:52:41;;;;;;;;;;;16.40;62.30;;;;;;5069764;28;20318;-74
2021/03/12 00:55:08;;;;;;;;;;;16.40;62.20;;;;;;5052743;28;19908;-73
2021/03/12 00:57:33;;;;;;;;;;;16.40;62.30;;;;;;5059190;28;19974;-74
2021/03/12 00:59:59;;;;;;;;;;;16.40;62.30;;;;;;5051398;28;19912;-73
2021/03/12 01:02:24;;;;;;;;;;;16.40;62.30;;;;;;5057983;28;19913;-73
2021/03/12 01:04:50;;;;;;;;;;;16.40;62.30;;;;;;5069163;28;20008;-74
2021/03/12 01:07:15;;;;;;;;;;;16.40;62.30;;;;;;5047723;28;19920;-74
2021/03/12 01:09:41;;;;;;;;;;;16.40;62.30;;;;;;5067827;28;19974;-75
2021/03/12 01:12:07;;;;;;;;;;;16.40;62.30;;;;;;5073330;28;19916;-73
2021/03/12 01:14:37;;;;;;;;;;;16.40;62.30;;;;;;5050530;28;19921;-75
2021/03/12 01:17:03;;;;;;;;;;;16.40;62.30;;;;;;5072948;28;19924;-75
2021/03/12 01:19:28;;;;;;;;;;;16.40;62.30;;;;;;5053745;28;19913;-74
2021/03/12 01:21:54;;;;;;;;;;;16.40;62.30;;;;;;5074853;28;20004;-74
2021/03/12 01:24:19;;;;;;;;;;;16.40;62.30;;;;;;5075310;28;20344;-74
2021/03/12 01:26:45;;;;;;;;;;;16.40;62.30;;;;;;5068012;28;19915;-73
2021/03/12 01:29:10;;;;;;;;;;;16.40;62.30;;;;;;5061084;28;20407;-73
2021/03/12 01:31:41;;;;;;;;;;;16.30;62.40;;;;;;5068248;28;20016;-73
2021/03/12 01:34:06;;;;;;;;;;;16.30;62.30;;;;;;5069282;28;19928;-73
2021/03/12 01:36:32;;;;;;;;;;;16.40;62.30;;;;;;5051819;28;19916;-74
2021/03/12 01:38:57;;;;;;;;;;;16.30;62.30;;;;;;5066021;28;19920;-74
2021/03/12 01:41:23;;;;;;;;;;;16.40;62.30;;;;;;5050019;28;20455;-74
2021/03/12 01:43:49;;;;;;;;;;;16.40;62.30;;;;;;5065925;28;19913;-74
2021/03/12 01:46:14;;;;;;;;;;;16.30;62.30;;;;;;5069989;28;19913;-73
2021/03/12 01:48:40;;;;;;;;;;;16.40;62.40;;;;;;5057933;28;19912;-73
2021/03/12 01:51:07;;;;;;;;;;;16.40;62.30;;;;;;5074991;28;19919;-75
2021/03/12 01:53:33;;;;;;;;;;;16.40;62.40;;;;;;5051818;28;19928;-74
2021/03/12 01:55:59;;;;;;;;;;;16.30;62.40;;;;;;5051667;28;19992;-73
2021/03/12 01:58:25;;;;;;;;;;;16.40;62.40;;;;;;5069130;28;20015;-73
2021/03/12 02:00:50;;;;;;;;;;;16.40;62.40;;;;;;5055149;28;19990;-73
2021/03/12 02:03:19;;;;;;;;;;;16.40;62.40;;;;;;5071142;28;20369;-75
2021/03/12 02:05:45;;;;;;;;;;;16.40;62.30;;;;;;5049939;28;19917;-73
2021/03/12 02:08:15;;;;;;;;;;;16.30;62.40;;;;;;5053483;28;19913;-73
2021/03/12 02:10:41;;;;;;;;;;;16.30;62.40;;;;;;5069204;28;19921;-74
2021/03/12 02:13:09;;;;;;;;;;;16.30;62.40;;;;;;5050556;28;19916;-73
2021/03/12 02:15:44;;;;;;;;;;;16.40;62.40;;;;;;5069520;28;19967;-73
2021/03/12 02:18:23;;;;;;;;;;;16.30;62.40;;;;;;5054792;28;19912;-74
2021/03/12 02:20:52;;;;;;;;;;;16.30;62.40;;;;;;5069176;28;20003;-75
2021/03/12 02:23:36;;;;;;;;;;;16.30;62.40;;;;;;5068535;28;19920;-74
2021/03/12 02:26:18;;;;;;;;;;;16.40;62.40;;;;;;5049464;28;19915;-74
2021/03/12 02:28:45;;;;;;;;;;;16.30;62.40;;;;;;5061909;28;19921;-74
2021/03/12 02:31:10;;;;;;;;;;;16.30;62.40;;;;;;5028686;28;19967;-73
2021/03/12 02:33:39;;;;;;;;;;;16.30;62.40;;;;;;5033275;28;20301;-73
2021/03/12 02:36:05;;;;;;;;;;;16.30;62.40;;;;;;5048989;28;20340;-73
2021/03/12 02:38:32;;;;;;;;;;;16.30;62.40;;;;;;5047484;28;19913;-73
2021/03/12 02:40:59;;;;;;;;;;;16.30;62.50;;;;;;5046897;28;19924;-74
2021/03/12 02:43:25;;;;;;;;;;;16.30;62.50;;;;;;5049171;28;19945;-73
2021/03/12 02:45:51;;;;;;;;;;;16.30;62.50;;;;;;5045197;28;21984;-73
2021/03/12 02:48:17;;;;;;;;;;;16.30;62.50;;;;;;5032111;28;19944;-75
2021/03/12 02:50:43;;;;;;;;;;;16.30;62.50;;;;;;5041068;28;19917;-73
2021/03/12 02:53:09;;;;;;;;;;;16.30;62.50;;;;;;5047994;28;19920;-73
2021/03/12 02:55:36;;;;;;;;;;;16.30;62.50;;;;;;5048221;28;19944;-73
2021/03/12 02:58:03;;;;;;;;;;;16.30;62.50;;;;;;5041463;28;20130;-75
2021/03/12 03:00:29;;;;;;;;;;;16.30;62.50;;;;;;5031605;28;20332;-74
2021/03/12 03:02:54;;;;;;;;;;;16.30;62.50;;;;;;5049774;28;19913;-73
2021/03/12 03:05:20;;;;;;;;;;;16.30;62.50;;;;;;5033106;28;19917;-74
2021/03/12 03:07:47;;;;;;;;;;;16.30;62.50;;;;;;5046141;28;19921;-74
2021/03/12 03:10:14;;;;;;;;;;;16.30;62.50;;;;;;5027415;28;19966;-73
2021/03/12 03:12:41;;;;;;;;;;;16.30;62.50;;;;;;5028379;28;19920;-73
2021/03/12 03:15:07;;;;;;;;;;;16.30;62.50;;;;;;5029124;28;19913;-74
2021/03/12 03:17:35;;;;;;;;;;;16.30;62.50;;;;;;5048036;28;19916;-75
2021/03/12 03:20:01;;;;;;;;;;;16.30;62.50;;;;;;5033284;28;19913;-73
2021/03/12 03:22:27;;;;;;;;;;;16.30;62.50;;;;;;5046933;28;19913;-73
2021/03/12 03:24:53;;;;;;;;;;;16.30;62.50;;;;;;5029501;28;19923;-74
2021/03/12 03:27:19;;;;;;;;;;;16.30;62.50;;;;;;5031296;28;19920;-73
2021/03/12 03:29:44;;;;;;;;;;;16.30;62.50;;;;;;5033980;28;20286;-74
2021/03/12 03:32:11;;;;;;;;;;;16.30;62.50;;;;;;5037081;28;19951;-73
2021/03/12 03:34:41;;;;;;;;;;;16.30;62.50;;;;;;5034417;28;19920;-73
2021/03/12 03:37:06;;;;;;;;;;;16.30;62.50;;;;;;5051147;28;19963;-73
2021/03/12 03:39:32;;;;;;;;;;;16.30;62.50;;;;;;5047968;28;19920;-74
2021/03/12 03:42:00;;;;;;;;;;;16.30;62.50;;;;;;5051183;28;19946;-73
2021/03/12 03:44:28;;;;;;;;;;;16.30;62.50;;;;;;5033715;28;19967;-73
2021/03/12 03:46:59;;;;;;;;;;;16.30;62.50;;;;;;5054582;28;19912;-73
2021/03/12 03:49:25;;;;;;;;;;;16.30;62.50;;;;;;5033023;28;19913;-73
2021/03/12 03:51:51;;;;;;;;;;;16.30;62.50;;;;;;5032661;28;19962;-73
2021/03/12 03:54:20;;;;;;;;;;;16.30;62.50;;;;;;5045949;28;20359;-75
2021/03/12 03:56:46;;;;;;;;;;;16.30;62.50;;;;;;5026633;28;19924;-73
2021/03/12 03:59:12;;;;;;;;;;;16.30;62.50;;;;;;5049590;28;20274;-74
2021/03/12 04:01:38;;;;;;;;;;;16.30;62.50;;;;;;5057056;28;20366;-73
2021/03/12 04:04:06;;;;;;;;;;;16.30;62.50;;;;;;5049336;28;20051;-74
2021/03/12 04:06:32;;;;;;;;;;;16.30;62.50;;;;;;5036471;28;19959;-73
2021/03/12 04:08:58;;;;;;;;;;;16.30;62.50;;;;;;5045325;28;19913;-73
2021/03/12 04:11:24;;;;;;;;;;;16.30;62.60;;;;;;5032706;28;20011;-74
2021/03/12 04:13:50;;;;;;;;;;;16.30;62.50;;;;;;5052494;28;20008;-73
2021/03/12 04:16:16;;;;;;;;;;;16.30;62.60;;;;;;5033856;28;19923;-75
2021/03/12 04:18:43;;;;;;;;;;;16.30;62.50;;;;;;5047753;28;19913;-73
2021/03/12 04:21:09;;;;;;;;;;;16.30;62.60;;;;;;5050631;28;19924;-73
2021/03/12 04:23:35;;;;;;;;;;;16.30;62.60;;;;;;5034670;28;19971;-73
2021/03/12 04:26:06;;;;;;;;;;;16.30;62.60;;;;;;5051522;28;19917;-74
2021/03/12 04:28:32;;;;;;;;;;;16.30;62.60;;;;;;5046160;28;20271;-74
2021/03/12 04:30:57;;;;;;;;;;;16.30;62.60;;;;;;5052688;28;19917;-73
2021/03/12 04:33:23;;;;;;;;;;;16.30;62.60;;;;;;5053309;28;20291;-74
2021/03/12 04:35:48;;;;;;;;;;;16.30;62.60;;;;;;5035531;28;19912;-73
2021/03/12 04:38:14;;;;;;;;;;;16.30;62.50;;;;;;5027390;28;20259;-74
2021/03/12 04:40:40;;;;;;;;;;;16.30;62.50;;;;;;5031762;28;19925;-73
2021/03/12 04:43:07;;;;;;;;;;;16.30;62.60;;;;;;5047784;28;21616;-73
2021/03/12 04:45:32;;;;;;;;;;;16.30;62.50;;;;;;5050564;28;19921;-74
2021/03/12 04:47:59;;;;;;;;;;;16.30;62.50;;;;;;5054282;28;19966;-73
2021/03/12 04:50:25;;;;;;;;;;;16.30;62.50;;;;;;5033704;28;20274;-73
2021/03/12 04:52:53;;;;;;;;;;;16.30;62.50;;;;;;5030512;28;19920;-73
2021/03/12 04:55:18;;;;;;;;;;;16.30;62.50;;;;;;5052046;28;19912;-73
2021/03/12 04:57:44;;;;;;;;;;;16.30;62.50;;;;;;5048336;28;20851;-73
2021/03/12 05:00:10;;;;;;;;;;;16.30;62.50;;;;;;5047090;28;19913;-73
2021/03/12 05:02:35;;;;;;;;;;;16.30;62.60;;;;;;5058501;28;19912;-74
2021/03/12 05:05:08;;;;;;;;;;;16.30;62.50;;;;;;5052414;28;19913;-73
2021/03/12 05:07:34;;;;;;;;;;;16.30;62.50;;;;;;5047733;28;19995;-73
2021/03/12 05:10:00;;;;;;;;;;;16.30;62.50;;;;;;5049991;28;20008;-73
2021/03/12 05:12:25;;;;;;;;;;;16.30;62.50;;;;;;5050090;28;19912;-73
2021/03/12 05:14:51;;;;;;;;;;;16.30;62.50;;;;;;5048060;28;19943;-72
2021/03/12 05:17:17;;;;;;;;;;;16.30;62.50;;;;;;5033107;28;20374;-73
2021/03/12 05:19:42;;;;;;;;;;;16.30;62.50;;;;;;5056254;28;19920;-73
2021/03/12 05:22:08;;;;;;;;;;;16.30;62.50;;;;;;5045024;28;20058;-72
2021/03/12 05:24:33;;;;;;;;;;;16.30;62.50;;;;;;5047300;28;20255;-73
2021/03/12 05:27:02;;;;;;;;;;;16.30;62.50;;;;;;5050164;28;20024;-72
2021/03/12 05:29:27;;;;;;;;;;;16.30;62.50;;;;;;5047914;28;20275;-73
2021/03/12 05:31:58;;;;;;;;;;;16.30;62.50;;;;;;5034388;28;19917;-74
2021/03/12 05:34:23;;;;;;;;;;;16.30;62.50;;;;;;5052955;28;19928;-73
2021/03/12 05:36:53;;;;;;;;;;;16.30;62.60;;;;;;5049800;28;19913;-73
2021/03/12 05:39:24;;;;;;;;;;;16.30;62.60;;;;;;5034092;28;19917;-73
2021/03/12 05:41:50;;;;;;;;;;;16.30;62.60;;;;;;5048466;28;19921;-73
2021/03/12 05:44:16;;;;;;;;;;;16.30;62.50;;;;;;5048183;28;19921;-74
2021/03/12 05:46:42;;;;;;;;;;;16.30;62.50;;;;;;5049664;28;21762;-73
2021/03/12 05:49:08;;;;;;;;;;;16.30;62.50;;;;;;5037397;28;19916;-73
2021/03/12 05:51:34;;;;;;;;;;;16.30;62.60;;;;;;5032466;28;20282;-73
2021/03/12 05:54:03;;;;;;;;;;;16.30;62.60;;;;;;5046487;28;20324;-74
2021/03/12 05:56:29;;;;;;;;;;;16.30;62.60;;;;;;5042312;28;19917;-75
2021/03/12 05:58:55;;;;;;;;;;;16.30;62.60;;;;;;5046624;28;19920;-73
2021/03/12 06:01:20;;;;;;;;;;;16.30;62.60;;;;;;5038158;28;20419;-73
2021/03/12 06:03:46;;;;;;;;;;;16.30;62.60;;;;;;5053759;28;19919;-74
2021/03/12 06:06:11;;;;;;;;;;;16.30;62.60;;;;;;5034021;28;20285;-74
2021/03/12 06:08:38;;;;;;;;;;;16.30;62.60;;;;;;5053762;28;20001;-73
2021/03/12 06:11:04;;;;;;;;;;;16.30;62.60;;;;;;5022622;28;19920;-74
2021/03/12 06:13:30;;;;;;;;;;;16.30;62.60;;;;;;5040247;28;20350;-72
2021/03/12 06:15:55;;;;;;;;;;;16.30;62.60;;;;;;5032373;28;19913;-73
2021/03/12 06:18:27;;;;;;;;;;;16.30;62.60;;;;;;5035925;28;20370;-73
2021/03/12 06:20:53;;;;;;;;;;;16.30;62.60;;;;;;5049556;28;19979;-74
2021/03/12 06:23:31;;;;;;;;;;;16.30;62.60;;;;;;5050120;28;19916;-73
2021/03/12 06:25:57;;;;;;;;;;;16.30;62.60;;;;;;5028458;28;19913;-73
2021/03/12 06:28:24;;;;;;;;;;;16.30;62.60;;;;;;5028727;28;19939;-73
2021/03/12 06:30:50;;;;;;;;;;;16.30;62.60;;;;;;5031534;28;19928;-73
2021/03/12 06:33:28;;;;;;;;;;;16.30;62.60;;;;;;5031148;28;19921;-73
2021/03/12 06:35:54;;;;;;;;;;;16.30;62.60;;;;;;5041260;28;19996;-73
2021/03/12 06:38:23;;;;;;;;;;;16.30;62.60;;;;;;5048414;28;19928;-73
2021/03/12 06:40:48;;;;;;;;;;;16.30;62.50;;;;;;5046320;28;20412;-74
2021/03/12 06:43:19;;;;;;;;;;;16.30;62.50;;;;;;5029851;28;19913;-74
2021/03/12 06:45:45;;;;;;;;;;;16.30;62.50;;;;;;5044358;28;19928;-74
2021/03/12 06:48:32;;;;;;;;;;;16.30;62.50;;;;;;5045558;28;19913;-74
2021/03/12 06:51:03;;;;;;;;;;;16.30;62.40;;;;;;5024408;28;19917;-74
2021/03/12 06:53:33;;;;;;;;;;;16.30;62.40;;;;;;5051546;28;19908;-74
2021/03/12 06:56:00;;;;;;;;;;;16.40;62.40;;;;;;5032527;28;20360;-74
2021/03/12 06:58:30;;;;;;;;;;;16.30;62.40;;;;;;5050022;28;19917;-74
2021/03/12 07:00:56;;;;;;;;;;;16.30;62.40;;;;;;5026552;28;19945;-74
2021/03/12 07:03:22;;;;;;;;;;;16.40;62.40;;;;;;5030712;28;19917;-75
2021/03/12 07:05:53;;;;;;;;;;;16.40;62.40;;;;;;5050017;28;19913;-75
2021/03/12 07:08:29;;;;;;;;;;;16.40;62.40;;;;;;5046655;28;19913;-73
2021/03/12 07:10:54;;;;;;;;;;;16.40;62.30;;;;;;5048582;28;19913;-74
2021/03/12 07:13:20;;;;;;;;;;;16.40;62.30;;;;;;5043097;28;19917;-75
2021/03/12 07:15:46;;;;;;;;;;;16.40;62.20;;;;;;5026265;28;19969;-74
2021/03/12 07:18:11;;;;;;;;;;;16.50;62.10;;;;;;5044507;28;19959;-75
2021/03/12 07:20:37;;;;;;;;;;;16.50;62.10;;;;;;5030788;28;20351;-74
2021/03/12 07:23:03;;;;;;;;;;;16.50;62.00;;;;;;5050882;28;19917;-75
2021/03/12 07:25:29;;;;;;;;;;;16.50;62.00;;;;;;5046035;28;19913;-74
2021/03/12 07:28:00;;;;;;;;;;;16.50;62.00;;;;;;5029949;28;19913;-74
2021/03/12 07:30:31;;;;;;;;;;;16.50;62.00;;;;;;5043944;28;20011;-74
2021/03/12 07:32:59;;;;;;;;;;;16.50;62.00;;;;;;5025907;28;19912;-75
2021/03/12 07:35:26;;;;;;;;;;;16.50;62.10;;;;;;5050868;28;20395;-76
2021/03/12 07:37:53;;;;;;;;;;;16.50;62.10;;;;;;5050552;28;20354;-75
2021/03/12 07:40:19;;;;;;;;;;;16.50;62.10;;;;;;5049850;28;20071;-75
2021/03/12 07:42:46;;;;;;;;;;;16.50;62.10;;;;;;5027239;28;19921;-74
2021/03/12 07:45:11;;;;;;;;;;;16.50;62.10;;;;;;5031701;28;19920;-75
2021/03/12 07:47:37;;;;;;;;;;;16.50;62.20;;;;;;5049529;28;19913;-76
2021/03/12 07:50:22;;;;;;;;;;;16.50;62.10;;;;;;5029518;28;20362;-75
2021/03/12 07:52:48;;;;;;;;;;;16.50;62.10;;;;;;5045525;28;19917;-76
2021/03/12 07:55:33;;;;;;;;;;;16.60;62.00;;;;;;5049578;28;19960;-75
2021/03/12 07:57:59;;;;;;;;;;;16.60;62.00;;;;;;5052325;28;19917;-75
2021/03/12 08:00:24;;;;;;;;;;;16.60;62.00;;;;;;5045900;28;19912;-75
2021/03/12 08:02:55;;;;;;;;;;;16.60;62.00;;;;;;5048820;28;19971;-75
2021/03/12 08:05:34;;;;;;;;;;;16.60;62.00;;;;;;5050727;28;19934;-75
2021/03/12 08:08:04;;;;;;;;;;;16.60;62.00;;;;;;5033413;28;20008;-75
2021/03/12 08:10:30;;;;;;;;;;;16.60;61.90;;;;;;5064404;28;19913;-75
2021/03/12 08:12:56;;;;;;;;;;;16.60;61.90;;;;;;5050266;28;19921;-75
2021/03/12 08:15:23;;;;;;;;;;;16.60;61.90;;;;;;5048634;28;19939;-75
2021/03/12 08:17:58;;;;;;;;;;;16.60;61.90;;;;;;5048172;28;19912;-75
2021/03/12 08:20:26;;;;;;;;;;;16.60;61.90;;;;;;5038421;28;19917;-75
2021/03/12 08:22:52;;;;;;;;;;;16.70;61.80;;;;;;5067576;28;19913;-76
2021/03/12 08:25:30;;;;;;;;;;;16.70;61.80;;;;;;5068771;28;20354;-76
2021/03/12 08:27:56;;;;;;;;;;;16.70;61.80;;;;;;5050242;28;19916;-75
2021/03/12 08:30:24;;;;;;;;;;;16.70;61.80;;;;;;5035758;28;20054;-76
2021/03/12 08:32:50;;;;;;;;;;;16.60;61.90;;;;;;5047040;28;20412;-75
2021/03/12 08:38:03;;;;;;;;;;;16.60;62.00;;;;;;5053044;28;19913;-75
2021/03/12 08:40:30;;;;;;;;;;;16.60;62.10;;;;;;5056739;28;20343;-75
2021/03/12 08:42:55;;;;;;;;;;;16.60;62.10;;;;;;5042406;28;19995;-75
2021/03/12 08:45:41;;;;;;;;;;;16.60;62.10;;;;;;5030764;28;19921;-75
2021/03/12 08:48:09;;;;;;;;;;;16.60;62.10;;;;;;5047557;28;19927;-75
2021/03/12 08:50:40;;;;;;;;;;;16.60;62.20;;;;;;5030366;28;19917;-75
2021/03/12 08:53:05;;;;;;;;;;;16.60;62.20;;;;;;5037469;28;19913;-75
2021/03/12 08:55:35;;;;;;;;;;;16.60;62.20;;;;;;5051534;28;19920;-77
2021/03/12 08:58:33;;;;;;;;;;;16.60;62.20;;;;;;5028730;28;19952;-76
2021/03/12 09:01:19;;;;;;;;;;;16.60;62.20;;;;;;5005537;28;20467;-75
2021/03/12 09:03:48;;;;;;;;;;;16.60;62.00;;;;;;5046261;28;19917;-75
2021/03/12 09:06:18;;;;;;;;;;;16.60;62.00;;;;;;5035609;28;20354;-75
2021/03/12 09:08:44;;;;;;;;;;;16.60;61.80;;;;;;5066032;28;19916;-76
2021/03/12 09:11:13;;;;;;;;;;;16.60;61.80;;;;;;5047171;28;20488;-75
2021/03/12 09:13:39;;;;;;;;;;;16.60;61.80;;;;;;5040509;28;19963;-75
2021/03/12 09:16:06;;;;;;;;;;;16.60;61.80;;;;;;5027009;28;20409;-76
2021/03/12 09:18:33;;;;;;;;;;;16.60;61.80;;;;;;5032501;28;20018;-76
2021/03/12 09:21:02;;;;;;;;;;;16.60;61.80;;;;;;5061196;28;19921;-76
2021/03/12 09:23:35;;;;;;;;;;;16.60;61.80;;;;;;5028177;28;20325;-76
2021/03/12 09:26:01;;;;;;;;;;;16.60;61.70;;;;;;5047917;28;19931;-76
2021/03/12 09:28:33;;;;;;;;;;;16.60;61.70;;;;;;5043108;28;19955;-76
2021/03/12 09:30:58;;;;;;;;;;;16.70;61.60;;;;;;5044019;28;19966;-75
2021/03/12 09:33:30;;;;;;;;;;;16.70;61.50;;;;;;5041319;28;19921;-75
2021/03/12 09:35:56;;;;;;;;;;;16.70;61.50;;;;;;5047998;28;19940;-75
2021/03/12 09:38:36;;;;;;;;;;;16.80;61.30;;;;;;5050419;28;19913;-75
2021/03/12 09:41:19;;;;;;;;;;;16.90;61.10;;;;;;5043648;28;20033;-76
2021/03/12 09:43:46;;;;;;;;;;;16.90;60.90;;;;;;5037391;28;19971;-76
2021/03/12 09:46:16;;;;;;;;;;;16.90;60.90;;;;;;5047728;28;19913;-76
2021/03/12 09:48:42;;;;;;;;;;;16.90;60.80;;;;;;5045435;28;19967;-75
2021/03/12 09:51:13;;;;;;;;;;;16.90;60.90;;;;;;5036337;28;19913;-73
2021/03/12 09:53:39;;;;;;;;;;;16.80;61.10;;;;;;5054549;28;19921;-73
2021/03/12 09:56:05;;;;;;;;;;;16.80;61.20;;;;;;5051494;28;19927;-73
2021/03/12 09:58:31;;;;;;;;;;;16.80;61.20;;;;;;5029751;28;20004;-75
2021/03/12 10:01:13;;;;;;;;;;;16.80;61.10;;;;;;5028831;28;19943;-75
2021/03/12 10:03:39;;;;;;;;;;;16.80;61.10;;;;;;5041795;28;19923;-74
2021/03/12 10:06:05;;;;;;;;;;;16.90;61.00;;;;;;5030831;28;19913;-75
2021/03/12 10:08:31;;;;;;;;;;;16.90;61.00;;;;;;5054047;28;19912;-75
2021/03/12 10:10:58;;;;;;;;;;;16.90;61.00;;;;;;5030985;28;19913;-75
2021/03/12 10:13:31;;;;;;;;;;;16.90;61.10;;;;;;5023890;28;19917;-75
2021/03/12 10:16:10;;;;;;;;;;;16.80;61.10;;;;;;5046964;28;19912;-75
2021/03/12 10:18:42;;;;;;;;;;;16.90;61.10;;;;;;5045799;28;19913;-75
2021/03/12 10:21:08;;;;;;;;;;;16.80;61.10;;;;;;5051588;28;19968;-74
2021/03/12 10:23:34;;;;;;;;;;;16.90;61.10;;;;;;5032460;28;19913;-75
2021/03/12 10:26:03;;;;;;;;;;;16.90;61.00;;;;;;5030338;28;19920;-76
2021/03/12 10:28:29;;;;;;;;;;;16.90;61.00;;;;;;5027010;28;19947;-76
2021/03/12 10:30:56;;;;;;;;;;;16.90;61.00;;;;;;5045426;28;19912;-74
2021/03/12 10:33:22;;;;;;;;;;;16.90;61.00;;;;;;5050198;28;19917;-75
2021/03/12 10:35:49;;;;;;;;;;;16.80;61.10;;;;;;5069055;28;19913;-75
2021/03/12 10:38:14;;;;;;;;;;;16.90;61.10;;;;;;5071301;28;19912;-75
2021/03/12 10:40:42;;;;;;;;;;;16.90;61.00;;;;;;5051883;28;20467;-75
2021/03/12 10:43:17;;;;;;;;;;;16.90;61.00;;;;;;5064512;28;20023;-74
2021/03/12 10:45:44;;;;;;;;;;;16.90;60.90;;;;;;5064006;28;19973;-74
2021/03/12 10:48:11;;;;;;;;;;;17.00;60.80;;;;;;5061999;28;19931;-74
2021/03/12 10:50:38;;;;;;;;;;;17.00;60.70;;;;;;5085458;28;19908;-75
2021/03/12 10:53:11;;;;;;;;;;;17.00;60.70;;;;;;5057255;28;19928;-75
2021/03/12 10:55:48;;;;;;;;;;;17.00;60.70;;;;;;5069752;28;20202;-74
2021/03/12 10:58:33;;;;;;;;;;;17.00;60.70;;;;;;5059979;28;19956;-75
2021/03/12 11:01:03;;;;;;;;;;;17.00;60.70;;;;;;5044382;28;20361;-75
2021/03/12 11:03:29;;;;;;;;;;;17.00;60.80;;;;;;5073061;28;19908;-74
2021/03/12 11:05:54;;;;;;;;;;;16.90;60.80;;;;;;5060156;28;19908;-74
2021/03/12 11:08:20;;;;;;;;;;;17.00;60.80;;;;;;5041128;28;19909;-76
2021/03/12 11:10:46;;;;;;;;;;;17.00;60.70;;;;;;5070031;28;19915;-76
2021/03/12 11:13:11;;;;;;;;;;;17.00;60.70;;;;;;5061181;28;20046;-75
2021/03/12 11:15:37;;;;;;;;;;;17.00;60.70;;;;;;5046781;28;19927;-74
2021/03/12 11:18:03;;;;;;;;;;;17.00;60.70;;;;;;5049389;28;19918;-75
2021/03/12 11:20:33;;;;;;;;;;;17.00;60.80;;;;;;5053978;28;19919;-74
2021/03/12 11:23:01;;;;;;;;;;;16.90;60.80;;;;;;5053146;28;19909;-75
2021/03/12 11:25:27;;;;;;;;;;;16.90;60.90;;;;;;5060932;28;19921;-75
2021/03/12 11:27:52;;;;;;;;;;;16.80;61.00;;;;;;5062771;28;20554;-75
2021/03/12 11:30:24;;;;;;;;;;;16.80;61.10;;;;;;5049417;28;19920;-75
2021/03/12 11:32:49;;;;;;;;;;;16.80;61.10;;;;;;5046346;28;19908;-75
2021/03/12 11:35:16;;;;;;;;;;;16.80;61.10;;;;;;5070439;28;19935;-74
2021/03/12 11:37:42;;;;;;;;;;;16.80;61.20;;;;;;5067829;28;19951;-74
2021/03/12 11:40:09;;;;;;;;;;;16.80;61.20;;;;;;5048433;28;19956;-74
2021/03/12 11:42:35;;;;;;;;;;;16.80;61.20;;;;;;5065297;28;19922;-76
2021/03/12 11:45:01;;;;;;;;;;;16.80;61.20;;;;;;5048797;28;19963;-75
2021/03/12 11:47:27;;;;;;;;;;;16.80;61.20;;;;;;5049863;28;19916;-76
2021/03/12 11:49:52;;;;;;;;;;;16.80;61.10;;;;;;5075442;28;19908;-76
2021/03/12 11:52:23;;;;;;;;;;;16.80;61.10;;;;;;5073347;28;19908;-76
2021/03/12 11:54:48;;;;;;;;;;;16.90;61.10;;;;;;5061905;28;19936;-76
2021/03/12 11:57:14;;;;;;;;;;;16.90;61.10;;;;;;5057671;28;19960;-75
2021/03/12 11:59:39;;;;;;;;;;;16.90;61.00;;;;;;5048064;28;19908;-75
2021/03/12 12:02:06;;;;;;;;;;;16.90;61.00;;;;;;5067876;28;19916;-75
2021/03/12 12:04:32;;;;;;;;;;;16.90;61.00;;;;;;5071335;28;19999;-76
2021/03/12 12:06:59;;;;;;;;;;;16.90;61.00;;;;;;5053955;28;20007;-75
2021/03/12 12:09:25;;;;;;;;;;;16.90;61.00;;;;;;5073982;28;19908;-76
2021/03/12 12:11:50;;;;;;;;;;;16.90;60.90;;;;;;5053374;28;19908;-75
2021/03/12 12:14:16;;;;;;;;;;;16.90;60.90;;;;;;5050722;28;19927;-75
2021/03/12 12:16:41;;;;;;;;;;;17.00;60.80;;;;;;5048031;28;19923;-77
2021/03/12 12:19:12;;;;;;;;;;;17.00;60.80;;;;;;5054554;28;19915;-75
2021/03/12 12:21:38;;;;;;;;;;;17.00;60.90;;;;;;5047471;28;19916;-75
2021/03/12 12:24:04;;;;;;;;;;;17.00;60.80;;;;;;5072655;28;20499;-75
2021/03/12 12:26:35;;;;;;;;;;;17.00;60.80;;;;;;5063989;28;20415;-75
2021/03/12 12:29:01;;;;;;;;;;;17.10;60.70;;;;;;5046017;28;20316;-77
2021/03/12 12:31:26;;;;;;;;;;;17.10;60.60;;;;;;5046193;28;20395;-76
2021/03/12 12:33:52;;;;;;;;;;;17.10;60.50;;;;;;5073251;28;19908;-76
2021/03/12 12:36:22;;;;;;;;;;;17.10;60.40;;;;;;5076164;28;20341;-76
2021/03/12 12:38:48;;;;;;;;;;;17.20;60.40;;;;;;5053422;28;19955;-76
2021/03/12 12:41:13;;;;;;;;;;;17.10;60.40;;;;;;5069318;28;20292;-75
2021/03/12 12:43:39;;;;;;;;;;;17.10;60.40;;;;;;5074855;28;20460;-75
2021/03/12 12:46:05;;;;;;;;;;;17.10;60.40;;;;;;5060717;28;19995;-75
2021/03/12 12:48:30;;;;;;;;;;;17.20;60.30;;;;;;5071274;28;19998;-75
2021/03/12 12:50:56;;;;;;;;;;;17.20;60.10;;;;;;5057142;28;19915;-75
2021/03/12 12:53:22;;;;;;;;;;;17.20;60.10;;;;;;5077415;28;20008;-77
2021/03/12 12:55:52;;;;;;;;;;;17.20;60.10;;;;;;5054764;28;19912;-75
2021/03/12 12:58:23;;;;;;;;;;;17.20;60.10;;;;;;5068940;28;19921;-76
2021/03/12 13:00:48;;;;;;;;;;;17.20;60.10;;;;;;5050733;28;19916;-76
2021/03/12 13:03:14;;;;;;;;;;;17.20;60.20;;;;;;5064003;28;19919;-75
2021/03/12 13:05:44;;;;;;;;;;;17.20;60.20;;;;;;5058644;28;20294;-75
2021/03/12 13:08:14;;;;;;;;;;;17.20;60.20;;;;;;5055758;28;19912;-75
2021/03/12 13:10:45;;;;;;;;;;;17.20;60.10;;;;;;5065015;28;19921;-77
2021/03/12 13:13:10;;;;;;;;;;;17.20;60.10;;;;;;5068580;28;20346;-75
2021/03/12 13:15:36;;;;;;;;;;;17.20;60.10;;;;;;5066855;28;19916;-75
2021/03/12 13:18:02;;;;;;;;;;;17.20;60.20;;;;;;5069459;28;20011;-76
2021/03/12 13:20:28;;;;;;;;;;;17.20;60.20;;;;;;5051405;28;19959;-75
2021/03/12 13:22:53;;;;;;;;;;;17.20;60.20;;;;;;5069435;28;20026;-75
2021/03/12 13:25:20;;;;;;;;;;;17.20;60.10;;;;;;5070160;28;20365;-76
2021/03/12 13:27:45;;;;;;;;;;;17.20;60.10;;;;;;5065001;28;20333;-76
2021/03/12 13:30:13;;;;;;;;;;;17.20;60.10;;;;;;5069631;28;19936;-77
2021/03/12 13:32:39;;;;;;;;;;;17.20;60.20;;;;;;5073369;28;19974;-75
2021/03/12 13:35:08;;;;;;;;;;;17.20;60.10;;;;;;5055240;28;20303;-75
2021/03/12 13:37:34;;;;;;;;;;;17.30;60.00;;;;;;5075720;28;19918;-75
2021/03/12 13:40:10;;;;;;;;;;;17.30;60.00;;;;;;5076248;28;19908;-75
2021/03/12 13:42:36;;;;;;;;;;;17.30;60.00;;;;;;5056441;28;19923;-75
2021/03/12 13:45:09;;;;;;;;;;;17.30;60.10;;;;;;5047661;28;19916;-76
2021/03/12 13:47:42;;;;;;;;;;;17.20;60.10;;;;;;5054928;28;20357;-75
2021/03/12 13:50:09;;;;;;;;;;;17.20;60.20;;;;;;5070248;28;19921;-75
2021/03/12 13:52:34;;;;;;;;;;;17.20;60.20;;;;;;5069461;28;19909;-76
2021/03/12 13:55:00;;;;;;;;;;;17.20;60.30;;;;;;5077972;28;19908;-75
2021/03/12 13:57:26;;;;;;;;;;;17.20;60.20;;;;;;5068729;28;19979;-76
2021/03/12 13:59:56;;;;;;;;;;;17.20;60.20;;;;;;5060810;28;19909;-77
2021/03/12 14:02:26;;;;;;;;;;;17.20;60.20;;;;;;5045463;28;19916;-75
2021/03/12 14:04:52;;;;;;;;;;;17.20;60.10;;;;;;5052123;28;19920;-75
2021/03/12 14:07:17;;;;;;;;;;;17.20;60.10;;;;;;5066904;28;19939;-77
2021/03/12 14:09:43;;;;;;;;;;;17.30;60.10;;;;;;5054653;28;19920;-75
2021/03/12 14:12:14;;;;;;;;;;;17.20;60.10;;;;;;5050048;28;19908;-75
2021/03/12 14:14:40;;;;;;;;;;;17.30;60.20;;;;;;5043197;28;19921;-76
2021/03/12 14:17:06;;;;;;;;;;;17.20;60.20;;;;;;5050178;28;19909;-75
2021/03/12 14:19:34;;;;;;;;;;;17.20;60.20;;;;;;5053757;28;19915;-77
2021/03/12 14:22:01;;;;;;;;;;;17.20;60.20;;;;;;5059798;28;19923;-76